Time;durP1;ratioP1;P1;durP2;ratioP2;P2;SDS_P1;SDS_P2;PMS_P1;PMS_P2;Temp;Humidity;BMP_temperature;BMP_pressure;BME280_temperature;BME280_humidity;BME280_pressure;Samples;Min_cycle;Max_cycle;Signal;HPM_P1;HPM_P2
2021/10/01 00:02:29;;;;;;;5.80;3.40;;;;;;;7.25;91.25;97849.10;115642;1196;24717;-82
2021/10/01 00:05:00;;;;;;;5.20;3.50;;;;;;;7.26;91.28;97845.92;115550;1198;27511;-82
2021/10/01 00:07:31;;;;;;;6.00;3.70;;;;;;;7.31;91.28;97843.70;115596;1198;28813;-82
2021/10/01 00:10:02;;;;;;;7.50;4.90;;;;;;;7.33;91.34;97841.52;115649;1190;44549;-82
2021/10/01 00:12:33;;;;;;;5.30;3.60;;;;;;;7.33;91.07;97841.52;115479;1197;28125;-82
2021/10/01 00:15:05;;;;;;;7.30;4.70;;;;;;;7.30;90.99;97840.42;115462;1197;31498;-81
2021/10/01 00:17:36;;;;;;;9.90;4.70;;;;;;;7.23;90.63;97840.56;115604;1198;35562;-82
2021/10/01 00:20:09;;;;;;;5.70;3.20;;;;;;;7.20;90.34;97843.34;115583;1197;27438;-81
2021/10/01 00:22:41;;;;;;;5.50;3.50;;;;;;;7.16;90.28;97842.33;115492;1197;28192;-83
2021/10/01 00:25:12;;;;;;;4.60;2.90;;;;;;;7.14;90.18;97843.08;115458;1198;28871;-81
2021/10/01 00:27:42;;;;;;;4.70;2.70;;;;;;;7.13;90.09;97844.96;115555;1197;28132;-82
2021/10/01 00:30:13;;;;;;;4.70;2.90;;;;;;;7.03;90.04;97844.91;115618;1197;28561;-82
2021/10/01 00:32:44;;;;;;;4.90;3.40;;;;;;;6.88;90.18;97842.94;115583;1197;79818;-81
2021/10/01 00:35:15;;;;;;;5.20;3.20;;;;;;;6.76;90.39;97841.84;115584;1198;26747;-82
2021/10/01 00:37:46;;;;;;;4.30;3.00;;;;;;;6.67;90.32;97840.71;115602;1198;42102;-82
2021/10/01 00:40:17;;;;;;;6.50;3.20;;;;;;;6.61;90.66;97836.89;115548;1197;27142;-82
2021/10/01 00:42:48;;;;;;;6.20;3.70;;;;;;;6.62;90.63;97838.46;115579;1197;29432;-83
2021/10/01 00:45:18;;;;;;;7.80;3.60;;;;;;;6.54;90.78;97840.14;115645;1197;33707;-83
2021/10/01 00:47:49;;;;;;;5.20;3.70;;;;;;;6.45;90.97;97841.79;115618;1197;27637;-81
2021/10/01 00:50:18;;;;;;;;;;;;;;;6.39;91.14;97840.36;115521;1197;28316;-82
2021/10/01 00:52:51;;;;;;;5.00;3.30;;;;;;;6.35;91.46;97839.00;115498;1197;29781;-82
2021/10/01 00:55:22;;;;;;;6.50;3.30;;;;;;;6.31;91.48;97837.48;115608;1197;28450;-82
2021/10/01 00:57:53;;;;;;;5.30;3.00;;;;;;;6.22;91.49;97833.19;115576;1197;28020;-82
2021/10/01 01:00:27;;;;;;;6.20;3.30;;;;;;;6.17;91.58;97833.19;115599;1197;29771;-82
2021/10/01 01:03:04;;;;;;;5.00;3.50;;;;;;;6.16;92.07;97830.37;115700;1197;28908;-81
2021/10/01 01:05:47;;;;;;;4.90;3.40;;;;;;;6.22;92.27;97831.45;115547;1196;28827;-81
2021/10/01 01:08:23;;;;;;;5.60;3.30;;;;;;;6.27;92.42;97825.20;115625;1197;27597;-82
2021/10/01 01:11:00;;;;;;;5.80;3.10;;;;;;;6.25;92.55;97824.52;115607;1192;28708;-82
2021/10/01 01:13:40;;;;;;;5.20;2.50;;;;;;;6.24;92.42;97821.78;115531;1197;27947;-81
2021/10/01 01:16:23;;;;;;;3.50;2.90;;;;;;;6.29;92.55;97826.46;115639;1197;27301;-82
2021/10/01 01:18:57;;;;;;;4.20;2.90;;;;;;;6.29;92.24;97824.16;115524;1197;26356;-81
2021/10/01 01:21:39;;;;;;;5.30;2.70;;;;;;;6.21;92.29;97824.69;115536;1197;34320;-81
2021/10/01 01:24:26;;;;;;;5.40;3.20;;;;;;;6.17;92.15;97827.92;115500;1197;25844;-81
2021/10/01 01:27:12;;;;;;;6.80;3.20;;;;;;;6.25;92.41;97827.52;115428;1198;32530;-83
2021/10/01 01:30:02;;;;;;;3.50;2.20;;;;;;;6.23;91.84;97826.02;115617;1196;35635;-82
2021/10/01 01:32:37;;;;;;;4.40;2.70;;;;;;;6.14;91.53;97826.38;115568;1197;36008;-81
2021/10/01 01:35:11;;;;;;;5.00;2.30;;;;;;;6.09;91.62;97824.11;115506;1197;27611;-82
2021/10/01 01:37:45;;;;;;;4.20;2.40;;;;;;;6.04;91.54;97828.92;115591;1197;29140;-81
2021/10/01 01:40:21;;;;;;;4.70;2.30;;;;;;;6.08;91.90;97824.40;115537;1197;30718;-81
2021/10/01 01:42:55;;;;;;;4.40;2.60;;;;;;;6.10;91.81;97825.71;115643;1197;25190;-82
2021/10/01 01:45:27;;;;;;;3.80;2.30;;;;;;;6.09;91.84;97826.45;115447;1198;30246;-81
2021/10/01 01:47:59;;;;;;;6.50;3.30;;;;;;;6.06;91.85;97824.41;115621;1191;25598;-82
2021/10/01 01:50:31;;;;;;;4.80;2.50;;;;;;;6.02;92.12;97821.33;115491;1198;39599;-81
2021/10/01 01:53:02;;;;;;;3.90;2.80;;;;;;;6.07;92.38;97820.52;115628;1197;29933;-81
2021/10/01 01:55:34;;;;;;;3.80;2.90;;;;;;;6.14;92.67;97823.14;115542;1190;26963;-81
2021/10/01 01:58:17;;;;;;;2.90;2.10;;;;;;;6.19;92.39;97822.56;115543;1197;30521;-82
2021/10/01 02:00:49;;;;;;;3.70;2.10;;;;;;;6.14;92.11;97825.69;115481;1197;30213;-81
2021/10/01 02:03:22;;;;;;;4.90;2.70;;;;;;;6.06;92.30;97825.48;115477;1198;27771;-82
2021/10/01 02:05:55;;;;;;;3.70;2.90;;;;;;;6.05;92.38;97823.41;115636;1197;28493;-82
2021/10/01 02:08:26;;;;;;;6.70;2.40;;;;;;;5.99;92.40;97827.45;115469;1197;28602;-82
2021/10/01 02:10:58;;;;;;;3.20;2.20;;;;;;;5.98;92.53;97824.01;115580;1197;27500;-81
2021/10/01 02:13:30;;;;;;;7.50;2.70;;;;;;;5.94;92.70;97823.81;115584;1197;76207;-81
2021/10/01 02:16:03;;;;;;;3.50;2.60;;;;;;;5.89;92.65;97826.80;115553;1197;24384;-81
2021/10/01 02:18:36;;;;;;;6.10;3.10;;;;;;;5.85;92.81;97830.39;115451;1197;35514;-81
2021/10/01 02:21:08;;;;;;;5.90;2.80;;;;;;;5.86;93.00;97830.16;115554;1197;24862;-81
2021/10/01 02:23:39;;;;;;;7.50;3.20;;;;;;;5.90;92.97;97831.40;115561;1196;25550;-81
2021/10/01 02:29:09;;;;;;;3.90;2.50;;;;;;;5.94;92.79;97831.84;115647;1197;29371;-82
2021/10/01 02:31:51;;;;;;;5.60;3.40;;;;;;;5.88;93.13;97832.09;115568;1197;28727;-82
2021/10/01 02:34:29;;;;;;;5.30;3.00;;;;;;;5.93;93.30;97837.39;115553;1197;29776;-83
2021/10/01 02:37:00;;;;;;;4.80;3.10;;;;;;;6.00;93.34;97835.95;115636;1197;27382;-81
2021/10/01 02:39:31;;;;;;;5.50;3.40;;;;;;;6.01;93.14;97834.95;115606;1198;27549;-81
2021/10/01 02:42:02;;;;;;;5.00;3.50;;;;;;;5.96;93.12;97834.64;115628;1197;25391;-82
2021/10/01 02:44:33;;;;;;;5.80;3.50;;;;;;;5.98;93.09;97839.52;115622;1197;25276;-80
2021/10/01 02:47:06;;;;;;;6.20;3.00;;;;;;;6.01;93.08;97840.94;115505;1197;26659;-82
2021/10/01 02:49:39;;;;;;;4.20;3.30;;;;;;;5.99;92.94;97839.60;115523;1190;26762;-81
2021/10/01 02:52:17;;;;;;;3.70;3.30;;;;;;;5.98;92.75;97837.63;115482;1198;24502;-82
2021/10/01 02:54:56;;;;;;;6.40;3.50;;;;;;;5.96;92.53;97836.59;115605;1197;28290;-83
2021/10/01 02:57:32;;;;;;;5.90;3.50;;;;;;;5.95;92.62;97838.52;115528;1198;26346;-81
2021/10/01 03:00:07;;;;;;;5.10;3.10;;;;;;;5.99;92.52;97839.77;115546;1197;33413;-81
2021/10/01 03:02:40;;;;;;;4.40;3.00;;;;;;;5.98;92.51;97840.86;115606;1197;28110;-83
2021/10/01 03:05:13;;;;;;;4.80;3.40;;;;;;;5.90;92.26;97841.44;115532;1197;30006;-81
2021/10/01 03:07:47;;;;;;;6.70;3.50;;;;;;;5.87;92.34;97837.61;115505;1197;27343;-82
2021/10/01 03:10:18;;;;;;;4.70;2.90;;;;;;;5.88;92.42;97834.69;115479;1198;45918;-82
2021/10/01 03:12:50;;;;;;;3.90;3.00;;;;;;;5.89;92.33;97838.27;115570;1197;27614;-82
2021/10/01 03:15:21;;;;;;;5.30;3.40;;;;;;;5.87;92.41;97838.38;115523;1192;26242;-82
2021/10/01 03:17:52;;;;;;;4.70;3.00;;;;;;;5.85;92.60;97836.86;115486;1197;26263;-81
2021/10/01 03:20:23;;;;;;;7.00;3.40;;;;;;;5.84;92.37;97831.66;115449;1197;61628;-83
2021/10/01 03:22:55;;;;;;;5.00;3.20;;;;;;;5.81;92.55;97830.59;115563;1197;28366;-81
2021/10/01 03:25:26;;;;;;;4.90;3.10;;;;;;;5.80;92.60;97828.91;115441;1197;24444;-81
2021/10/01 03:27:57;;;;;;;5.00;3.30;;;;;;;5.80;92.45;97831.58;115594;1197;27600;-82
2021/10/01 03:30:27;;;;;;;4.30;3.00;;;;;;;5.78;92.63;97825.29;115544;1193;26065;-81
2021/10/01 03:32:59;;;;;;;5.30;3.20;;;;;;;5.80;92.59;97824.77;115479;1197;31773;-82
2021/10/01 03:35:31;;;;;;;5.10;3.30;;;;;;;5.82;92.44;97826.46;115709;1197;29769;-81
2021/10/01 03:38:03;;;;;;;5.20;2.90;;;;;;;5.82;92.50;97823.09;115640;1198;26554;-81
2021/10/01 03:40:34;;;;;;;5.10;2.70;;;;;;;5.81;92.52;97822.34;115656;1197;29727;-82
2021/10/01 03:43:05;;;;;;;5.20;3.20;;;;;;;5.80;92.21;97821.21;115672;1197;26919;-81
2021/10/01 03:45:36;;;;;;;6.30;3.50;;;;;;;5.76;92.29;97820.39;115485;1184;27238;-81
2021/10/01 03:48:07;;;;;;;2.90;2.40;;;;;;;5.78;92.38;97817.19;115486;1197;28890;-82
2021/10/01 03:50:39;;;;;;;3.80;2.50;;;;;;;5.76;92.22;97818.15;115517;1197;26579;-83
2021/10/01 03:53:11;;;;;;;5.30;2.30;;;;;;;5.72;91.93;97819.06;115496;1198;56182;-81
2021/10/01 03:55:42;;;;;;;4.60;3.30;;;;;;;5.67;91.96;97815.80;115493;1197;27204;-82
2021/10/01 03:58:12;;;;;;;3.10;2.70;;;;;;;5.67;92.02;97814.95;115550;1197;27228;-81
2021/10/01 04:00:45;;;;;;;7.30;2.90;;;;;;;5.69;92.01;97815.21;115552;1197;33477;-82
2021/10/01 04:03:15;;;;;;;4.00;2.60;;;;;;;5.72;91.93;97819.83;115460;1197;28353;-81
2021/10/01 04:05:45;;;;;;;;;;;;;;;5.64;91.73;97816.10;115540;1197;27682;-82
2021/10/01 04:08:16;;;;;;;2.80;2.40;;;;;;;5.59;91.73;97810.80;115541;1197;27624;-81
2021/10/01 04:10:48;;;;;;;4.90;2.40;;;;;;;5.60;91.87;97812.48;115493;1197;26645;-81
2021/10/01 04:13:18;;;;;;;3.40;2.40;;;;;;;5.68;92.15;97813.23;115545;1183;25314;-81
2021/10/01 04:15:47;;;;;;;;;;;;;;;5.69;91.82;97811.64;115482;1197;29644;-82
2021/10/01 04:18:18;;;;;;;5.60;2.50;;;;;;;5.63;91.74;97810.67;115678;1197;28953;-81
2021/10/01 04:20:49;;;;;;;3.20;2.10;;;;;;;5.61;91.50;97806.28;115688;1197;24743;-81
2021/10/01 04:23:20;;;;;;;2.40;2.10;;;;;;;5.60;91.48;97809.04;115607;1196;25239;-81
2021/10/01 04:25:51;;;;;;;2.40;2.10;;;;;;;5.62;91.70;97806.48;115572;1197;31391;-82
2021/10/01 04:28:22;;;;;;;2.90;2.00;;;;;;;5.65;91.63;97802.95;115475;1197;24524;-81
2021/10/01 04:30:53;;;;;;;2.10;1.90;;;;;;;5.63;91.54;97801.58;115424;1197;24913;-82
2021/10/01 04:33:25;;;;;;;3.50;2.50;;;;;;;5.54;91.15;97800.61;115452;1197;24680;-82
2021/10/01 04:35:56;;;;;;;2.90;2.00;;;;;;;5.45;91.13;97800.08;115486;1191;34838;-81
2021/10/01 04:38:27;;;;;;;4.70;2.50;;;;;;;5.46;91.04;97798.77;115559;1190;27771;-82
2021/10/01 04:40:57;;;;;;;2.00;1.80;;;;;;;5.47;91.26;97799.29;115530;1197;27770;-81
2021/10/01 04:43:29;;;;;;;4.10;2.20;;;;;;;5.49;91.50;97798.89;115633;1197;25167;-81
2021/10/01 04:45:59;;;;;;;2.00;1.80;;;;;;;5.48;91.19;97798.46;115591;1197;51241;-81
2021/10/01 04:48:30;;;;;;;4.80;2.40;;;;;;;5.49;91.10;97804.54;115599;1197;40435;-81
2021/10/01 04:51:01;;;;;;;3.90;2.50;;;;;;;5.50;91.10;97799.39;115604;1197;34541;-82
2021/10/01 04:53:32;;;;;;;3.40;2.50;;;;;;;5.52;91.09;97797.67;115628;1197;28641;-81
2021/10/01 04:56:01;;;;;;;;;;;;;;;5.52;90.98;97798.09;115583;1197;27131;-81
2021/10/01 04:58:32;;;;;;;4.00;2.40;;;;;;;5.52;90.91;97800.72;115586;1198;26094;-81
2021/10/01 05:01:03;;;;;;;3.90;2.50;;;;;;;5.58;91.30;97800.77;115531;1197;27302;-82
2021/10/01 05:03:36;;;;;;;5.40;3.10;;;;;;;5.76;91.81;97798.54;115426;1191;29937;-82
2021/10/01 05:06:07;;;;;;;17.10;12.00;;;;;;;6.03;91.75;97799.38;115510;1197;26954;-82
2021/10/01 05:08:36;;;;;;;;;;;;;;;6.25;91.40;97801.83;115476;1197;27857;-82
2021/10/01 05:11:07;;;;;;;5.50;3.60;;;;;;;6.57;91.47;97798.44;115507;1197;27052;-82
2021/10/01 05:13:38;;;;;;;5.90;2.90;;;;;;;6.72;90.42;97796.33;115530;1197;27762;-82
2021/10/01 05:16:09;;;;;;;3.70;2.60;;;;;;;6.60;89.47;97796.45;115506;1197;26665;-82
2021/10/01 05:18:39;;;;;;;4.70;2.40;;;;;;;6.46;89.46;97796.02;115527;1197;26530;-82
2021/10/01 05:21:10;;;;;;;4.50;2.00;;;;;;;6.41;89.79;97794.83;115509;1197;32698;-83
2021/10/01 05:23:41;;;;;;;5.10;2.40;;;;;;;6.89;90.66;97794.98;115494;1197;35469;-82
2021/10/01 05:26:12;;;;;;;4.90;2.60;;;;;;;7.75;91.15;97796.19;115633;1190;29267;-83
2021/10/01 05:28:43;;;;;;;4.10;2.40;;;;;;;8.24;90.07;97796.48;115459;1197;28239;-82
2021/10/01 05:31:15;;;;;;;4.10;2.50;;;;;;;8.39;88.34;97801.27;115492;1196;28846;-82
2021/10/01 05:33:46;;;;;;;4.00;2.70;;;;;;;9.21;89.12;97795.02;115480;1196;28417;-82
2021/10/01 05:36:19;;;;;;;5.20;2.40;;;;;;;10.19;88.82;97799.54;115484;1197;28242;-83
2021/10/01 05:38:50;;;;;;;5.10;2.80;;;;;;;10.55;87.09;97799.98;115515;1196;28153;-83
2021/10/01 05:41:21;;;;;;;4.00;2.30;;;;;;;10.58;86.22;97801.19;115548;1197;28114;-82
2021/10/01 05:43:52;;;;;;;4.20;2.50;;;;;;;10.88;86.04;97799.85;115486;1197;28030;-82
2021/10/01 05:46:23;;;;;;;4.10;2.10;;;;;;;11.81;86.32;97799.84;115496;1197;28408;-82
2021/10/01 05:48:57;;;;;;;2.80;1.80;;;;;;;12.99;85.67;97798.52;115442;1197;32490;-82
2021/10/01 05:51:30;;;;;;;3.60;1.90;;;;;;;14.05;84.07;97793.15;115523;1197;32062;-82
2021/10/01 05:54:11;;;;;;;2.30;1.80;;;;;;;15.18;82.74;97797.48;115568;1197;34503;-82
2021/10/01 05:56:43;;;;;;;4.30;1.90;;;;;;;15.90;79.36;97792.75;115434;1197;30405;-83
2021/10/01 05:59:14;;;;;;;2.40;1.50;;;;;;;16.58;78.39;97794.80;115511;1197;27905;-82
2021/10/01 06:01:45;;;;;;;2.70;1.70;;;;;;;17.65;77.71;97792.67;115460;1197;32894;-83
2021/10/01 06:04:16;;;;;;;2.20;1.70;;;;;;;18.56;75.45;97792.33;115468;1193;27892;-83
2021/10/01 06:06:47;;;;;;;3.00;1.80;;;;;;;18.84;72.08;97795.23;115531;1197;28728;-83
2021/10/01 06:09:19;;;;;;;4.50;1.80;;;;;;;18.80;70.22;97793.66;115555;1197;29909;-83
2021/10/01 06:11:51;;;;;;;2.20;2.00;;;;;;;18.67;69.07;97796.36;115620;1197;31616;-83
2021/10/01 06:14:23;;;;;;;6.40;2.00;;;;;;;18.62;68.48;97796.19;115529;1197;30314;-83
2021/10/01 06:16:54;;;;;;;2.70;2.00;;;;;;;19.30;69.12;97799.34;115441;1190;36315;-82
2021/10/01 06:19:25;;;;;;;2.90;2.00;;;;;;;19.47;66.53;97798.94;115528;1197;27458;-83
2021/10/01 06:21:56;;;;;;;2.40;1.70;;;;;;;19.49;65.52;97801.42;115529;1197;29760;-83
2021/10/01 06:24:27;;;;;;;4.30;2.10;;;;;;;19.53;64.31;97805.14;115442;1198;28043;-82
2021/10/01 06:26:58;;;;;;;2.10;1.90;;;;;;;19.67;63.77;97807.80;115458;1198;29279;-83
2021/10/01 06:29:29;;;;;;;3.10;2.00;;;;;;;19.97;63.12;97802.83;115536;1197;28760;-80
2021/10/01 06:32:00;;;;;;;3.30;2.00;;;;;;;20.13;62.29;97805.02;115607;1197;26429;-82
2021/10/01 06:34:31;;;;;;;4.00;2.10;;;;;;;20.20;61.25;97803.45;115577;1197;27520;-83
2021/10/01 06:37:02;;;;;;;2.80;1.80;;;;;;;20.45;60.77;97806.70;115570;1197;29695;-82
2021/10/01 06:39:33;;;;;;;2.70;2.00;;;;;;;20.76;60.09;97803.42;115544;1197;27993;-83
2021/10/01 06:42:04;;;;;;;6.50;2.30;;;;;;;21.47;60.40;97802.27;115466;1197;25764;-81
2021/10/01 06:44:36;;;;;;;3.40;2.20;;;;;;;22.59;60.22;97800.35;115550;1197;32199;-82
2021/10/01 06:47:09;;;;;;;3.50;2.10;;;;;;;23.00;57.80;97799.41;115523;1197;26653;-82
2021/10/01 06:49:50;;;;;;;5.60;2.20;;;;;;;23.56;57.33;97804.37;115524;1197;24752;-83
2021/10/01 06:52:44;;;;;;;3.50;2.20;;;;;;;23.43;54.39;97807.46;115454;1197;29464;-83
2021/10/01 08:20:12;;;;;;;5.30;3.60;;;;;;;20.29;52.16;97752.35;115483;1197;29319;-82
2021/10/01 08:22:43;;;;;;;5.10;3.60;;;;;;;20.40;52.33;97754.23;115467;1197;35800;-84
2021/10/01 08:25:14;;;;;;;7.30;3.80;;;;;;;20.46;52.19;97754.27;115501;1190;32276;-83
2021/10/01 08:27:45;;;;;;;5.40;3.30;;;;;;;20.29;52.06;97751.60;115505;1196;28361;-84
2021/10/01 08:30:16;;;;;;;5.50;2.90;;;;;;;20.10;52.05;97750.08;115464;1197;32211;-83
2021/10/01 08:32:48;;;;;;;4.30;3.20;;;;;;;19.88;52.18;97753.58;115489;1197;59582;-83
2021/10/01 08:35:21;;;;;;;4.70;3.10;;;;;;;19.38;52.09;97749.10;115625;1197;26070;-83
2021/10/01 08:37:54;;;;;;;4.10;3.00;;;;;;;18.96;52.89;97752.64;115482;1197;31146;-82
2021/10/01 08:40:26;;;;;;;5.10;3.00;;;;;;;18.70;53.17;97752.10;115513;1197;28973;-82
2021/10/01 08:42:58;;;;;;;3.60;3.00;;;;;;;18.22;53.21;97747.33;115534;1197;34669;-82
2021/10/01 08:45:30;;;;;;;4.50;3.50;;;;;;;17.41;53.09;97747.67;115512;1197;27519;-83
2021/10/01 08:48:03;;;;;;;6.20;2.60;;;;;;;16.89;54.43;97746.20;115546;1197;40830;-84
2021/10/01 08:50:34;;;;;;;3.70;2.80;;;;;;;16.46;54.83;97748.54;115536;1190;26205;-81
2021/10/01 08:53:05;;;;;;;;;;;;;;;16.20;56.21;97741.65;115513;1197;28123;-82
2021/10/01 08:55:37;;;;;;;4.00;2.40;;;;;;;16.23;56.55;97741.23;115531;1197;29182;-83
2021/10/01 08:58:08;;;;;;;4.50;2.70;;;;;;;15.99;56.59;97739.91;115505;1197;33777;-82
2021/10/01 09:00:37;;;;;;;;;;;;;;;15.79;57.13;97737.03;115472;1198;33215;-82
2021/10/01 09:03:08;;;;;;;4.40;2.30;;;;;;;15.61;57.96;97733.58;115489;1197;30219;-83
2021/10/01 09:05:39;;;;;;;3.70;2.00;;;;;;;15.58;58.55;97738.13;115499;1197;27363;-82
2021/10/01 09:08:16;;;;;;;2.50;1.80;;;;;;;15.31;58.33;97738.54;115626;1197;27040;-83
2021/10/01 09:11:02;;;;;;;2.60;2.00;;;;;;;14.92;59.04;97737.29;115509;1197;30909;-82
2021/10/01 09:13:34;;;;;;;2.80;1.80;;;;;;;14.77;60.20;97725.77;115605;1191;28862;-84
2021/10/01 09:16:07;;;;;;;2.30;1.70;;;;;;;14.95;61.06;97728.56;115494;1191;27639;-82
2021/10/01 09:18:40;;;;;;;4.10;2.20;;;;;;;15.05;60.74;97727.31;115517;1197;34497;-82
2021/10/01 09:21:13;;;;;;;3.50;1.70;;;;;;;14.98;60.70;97725.29;115498;1193;26389;-83
2021/10/01 09:23:54;;;;;;;4.10;1.80;;;;;;;14.85;60.97;97721.55;115511;1197;28030;-83
2021/10/01 09:26:26;;;;;;;3.30;1.60;;;;;;;14.88;61.50;97722.79;115415;1198;27595;-83
2021/10/01 09:28:59;;;;;;;4.00;1.60;;;;;;;14.85;61.89;97721.80;115495;1197;67961;-83
2021/10/01 09:31:36;;;;;;;3.10;1.30;;;;;;;14.82;61.75;97724.66;115532;1198;26373;-84
2021/10/01 09:34:10;;;;;;;3.70;1.50;;;;;;;14.87;62.83;97717.36;115432;1197;27213;-82
2021/10/01 09:36:43;;;;;;;2.80;1.80;;;;;;;15.03;62.45;97717.40;115485;1198;26723;-83
2021/10/01 09:39:30;;;;;;;2.80;1.60;;;;;;;15.11;62.89;97708.84;115550;1197;26588;-83
2021/10/01 09:42:13;;;;;;;2.70;1.50;;;;;;;15.26;62.68;97711.55;115572;1197;30121;-83
2021/10/01 09:44:50;;;;;;;3.30;1.40;;;;;;;15.25;62.62;97707.34;115487;1197;27674;-85
2021/10/01 09:47:27;;;;;;;2.80;1.60;;;;;;;15.23;62.68;97706.67;115498;1197;35687;-83
2021/10/01 09:50:04;;;;;;;6.20;1.60;;;;;;;15.29;63.52;97700.23;115625;1197;25927;-83
2021/10/01 09:52:46;;;;;;;2.70;1.60;;;;;;;15.53;64.30;97699.33;115539;1197;27657;-82
2021/10/01 09:55:19;;;;;;;3.30;1.50;;;;;;;15.50;62.91;97697.20;115467;1197;28014;-82
2021/10/01 09:58:05;;;;;;;3.00;2.10;;;;;;;15.45;63.21;97700.35;115503;1197;27588;-84
2021/10/01 10:00:43;;;;;;;2.90;1.90;;;;;;;15.34;63.35;97700.24;115502;1191;50273;-82
2021/10/01 10:03:30;;;;;;;2.80;1.90;;;;;;;15.34;63.80;97696.66;115523;1197;29042;-83
2021/10/01 10:06:03;;;;;;;3.30;2.00;;;;;;;15.35;64.00;97695.75;115563;1198;31180;-83
2021/10/01 10:08:36;;;;;;;3.80;2.20;;;;;;;15.28;63.89;97690.90;115551;1197;26410;-82
2021/10/01 10:11:11;;;;;;;4.70;3.00;;;;;;;15.06;63.98;97693.88;115512;1198;27288;-83
2021/10/01 10:13:46;;;;;;;3.60;2.30;;;;;;;14.80;64.65;97692.75;115431;1198;31226;-83
2021/10/01 10:16:19;;;;;;;3.80;2.10;;;;;;;14.84;65.69;97690.59;115558;1197;31270;-83
2021/10/01 10:18:52;;;;;;;3.50;2.50;;;;;;;15.01;65.65;97692.58;115582;1191;26190;-84
2021/10/01 10:21:23;;;;;;;3.10;2.30;;;;;;;15.04;65.70;97690.41;115488;1197;34914;-84
2021/10/01 10:23:56;;;;;;;4.60;2.40;;;;;;;15.01;66.29;97686.76;115496;1197;30511;-84
2021/10/01 10:26:28;;;;;;;5.70;3.10;;;;;;;15.16;66.51;97683.33;115554;1197;27740;-83
2021/10/01 10:29:01;;;;;;;4.10;2.60;;;;;;;15.24;66.07;97685.11;115592;1197;30091;-83
2021/10/01 10:31:34;;;;;;;2.80;2.40;;;;;;;14.99;65.65;97685.54;115613;1197;24202;-83
2021/10/01 10:34:21;;;;;;;7.80;3.10;;;;;;;14.98;67.15;97678.66;115568;1190;28732;-84
2021/10/01 10:37:00;;;;;;;3.50;2.50;;;;;;;15.04;66.61;97679.73;115515;1197;29341;-83
2021/10/01 10:39:43;;;;;;;8.90;3.10;;;;;;;15.03;66.74;97673.28;115493;1198;27735;-83
2021/10/01 10:42:20;;;;;;;3.30;2.30;;;;;;;14.94;66.97;97667.45;115483;1190;28850;-83
2021/10/01 10:44:54;;;;;;;2.10;1.90;;;;;;;15.02;67.55;97666.23;115409;1192;28197;-84
2021/10/01 10:47:47;;;;;;;3.10;2.30;;;;;;;15.11;67.21;97663.06;115427;1184;29944;-84
2021/10/01 10:50:44;;;;;;;2.20;1.90;;;;;;;15.09;67.25;97660.14;115531;1191;28178;-83
2021/10/01 10:53:31;;;;;;;2.80;2.00;;;;;;;15.19;67.43;97659.25;115495;1197;29003;-83
2021/10/01 10:56:15;;;;;;;3.60;2.00;;;;;;;15.16;66.69;97659.13;115599;1197;28067;-83
2021/10/01 10:58:52;;;;;;;3.30;2.00;;;;;;;15.14;67.41;97655.88;115531;1197;28373;-83
2021/10/01 11:01:40;;;;;;;3.10;2.10;;;;;;;15.32;67.82;97656.33;115501;1197;34367;-83
2021/10/01 11:04:37;;;;;;;3.00;1.90;;;;;;;15.32;66.62;97655.01;115516;1194;32027;-83
2021/10/01 11:07:11;;;;;;;4.70;1.90;;;;;;;15.17;67.02;97651.78;115544;1197;26746;-83
2021/10/01 11:09:41;;;;;;;3.80;2.50;;;;;;;15.06;66.69;97647.56;115500;1197;35100;-83
2021/10/01 11:12:27;;;;;;;2.70;2.10;;;;;;;14.89;67.02;97653.38;115499;1197;28236;-83
2021/10/01 11:15:23;;;;;;;3.20;1.70;;;;;;;14.81;67.78;97647.63;115568;1197;44760;-83
2021/10/01 11:18:18;;;;;;;2.40;1.80;;;;;;;14.81;67.78;97652.20;115522;1197;26406;-83
2021/10/01 11:20:49;;;;;;;3.30;1.80;;;;;;;14.69;67.85;97644.95;115612;1197;28367;-83
2021/10/01 11:23:21;;;;;;;2.70;2.00;;;;;;;14.72;68.46;97643.42;115544;1190;28404;-84
2021/10/01 11:25:53;;;;;;;3.30;2.10;;;;;;;14.79;68.59;97639.10;115537;1197;28702;-84
2021/10/01 11:28:33;;;;;;;3.30;2.10;;;;;;;14.81;68.56;97641.44;115450;1197;34513;-84
2021/10/01 11:31:04;;;;;;;3.50;2.50;;;;;;;14.82;68.74;97640.67;115528;1197;28203;-81
2021/10/01 11:33:35;;;;;;;2.90;2.00;;;;;;;14.88;68.62;97637.99;115500;1197;36791;-82
2021/10/01 11:36:07;;;;;;;3.20;1.80;;;;;;;14.95;69.13;97633.83;115515;1197;27661;-83
2021/10/01 11:38:37;;;;;;;3.20;2.10;;;;;;;15.12;69.25;97630.25;115501;1196;28343;-83
2021/10/01 11:41:15;;;;;;;5.30;2.70;;;;;;;15.32;69.87;97628.98;115576;1197;28521;-83
2021/10/01 11:43:56;;;;;;;2.80;2.00;;;;;;;15.42;69.56;97627.42;115455;1197;28896;-83
2021/10/01 11:46:37;;;;;;;4.00;2.30;;;;;;;15.37;68.91;97626.89;115465;1191;26484;-83
2021/10/01 11:49:17;;;;;;;4.20;2.10;;;;;;;15.29;68.99;97623.66;115544;1197;30767;-83
2021/10/01 11:52:03;;;;;;;2.00;1.30;;;;;;;15.29;69.25;97623.77;115435;1197;27701;-84
2021/10/01 11:54:34;;;;;;;2.00;1.70;;;;;;;15.41;69.74;97619.48;115536;1197;29251;-84
2021/10/01 11:57:08;;;;;;;3.50;1.70;;;;;;;15.44;69.26;97616.02;115435;1198;29781;-83
2021/10/01 11:59:57;;;;;;;4.00;1.80;;;;;;;15.48;69.16;97614.22;115531;1197;30475;-83
2021/10/01 12:02:37;;;;;;;5.20;2.30;;;;;;;15.38;68.85;97615.14;115540;1193;29207;-84
2021/10/01 12:05:30;;;;;;;3.30;1.90;;;;;;;15.28;68.62;97613.42;115470;1197;35416;-83
2021/10/01 12:08:05;;;;;;;3.10;1.70;;;;;;;15.09;68.92;97610.48;115647;1197;27005;-84
2021/10/01 12:10:37;;;;;;;3.00;2.00;;;;;;;15.07;69.43;97607.66;115554;1190;30908;-83
2021/10/01 12:13:16;;;;;;;2.90;2.10;;;;;;;15.05;69.54;97607.13;115514;1184;28426;-83
2021/10/01 12:15:50;;;;;;;2.90;1.90;;;;;;;15.03;69.62;97603.90;115480;1198;28177;-84
2021/10/01 12:18:37;;;;;;;2.10;1.60;;;;;;;15.02;69.85;97603.16;115570;1197;27450;-84
2021/10/01 12:21:10;;;;;;;3.10;2.00;;;;;;;15.01;69.86;97599.59;115537;1197;30519;-84
2021/10/01 12:23:43;;;;;;;4.70;1.70;;;;;;;14.99;70.03;97596.04;115467;1197;28832;-84
2021/10/01 12:26:25;;;;;;;1.90;1.50;;;;;;;14.95;69.58;97592.50;115604;1194;31248;-84
2021/10/01 12:29:15;;;;;;;2.50;1.80;;;;;;;14.91;70.05;97589.96;115501;1197;27284;-83
2021/10/01 12:31:50;;;;;;;3.90;1.80;;;;;;;14.84;69.94;97590.67;115516;1197;27518;-84
2021/10/01 12:34:25;;;;;;;2.20;1.50;;;;;;;14.80;70.24;97584.90;115508;1197;28909;-83
2021/10/01 12:36:57;;;;;;;4.70;1.90;;;;;;;14.75;70.27;97580.39;115376;1195;29090;-84
2021/10/01 12:39:30;;;;;;;3.20;1.90;;;;;;;14.74;70.58;97580.73;115459;1197;28375;-84
2021/10/01 12:42:03;;;;;;;2.60;1.90;;;;;;;14.75;70.72;97578.38;115601;1196;28517;-83
2021/10/01 12:44:38;;;;;;;4.30;2.10;;;;;;;14.72;70.56;97579.25;115527;1195;29439;-83
2021/10/01 12:47:18;;;;;;;4.00;2.30;;;;;;;14.68;70.80;97578.17;115585;1197;25772;-83
2021/10/01 12:50:00;;;;;;;2.90;2.00;;;;;;;14.63;70.62;97574.00;115542;1197;37780;-84
2021/10/01 12:52:33;;;;;;;2.90;1.80;;;;;;;14.47;70.41;97572.26;115594;1198;29878;-83
2021/10/01 12:55:05;;;;;;;3.30;2.40;;;;;;;14.36;70.47;97574.55;115672;1198;26056;-83
2021/10/01 12:57:38;;;;;;;3.30;2.50;;;;;;;14.22;70.51;97572.53;115567;1197;28698;-83
2021/10/01 13:00:17;;;;;;;4.30;2.60;;;;;;;14.11;71.08;97570.48;115600;1197;26230;-83
2021/10/01 13:02:50;;;;;;;4.40;2.50;;;;;;;14.10;71.44;97563.61;115596;1197;28381;-85
2021/10/01 13:05:24;;;;;;;5.40;3.10;;;;;;;14.09;71.67;97558.77;115522;1197;28451;-84
2021/10/01 13:08:13;;;;;;;5.60;2.90;;;;;;;14.11;71.90;97559.91;115511;1197;30278;-83
2021/10/01 13:10:53;;;;;;;5.70;2.50;;;;;;;14.07;71.87;97558.06;115588;1197;31286;-83
2021/10/01 13:13:28;;;;;;;4.30;2.50;;;;;;;14.05;72.27;97551.89;115556;1193;28936;-83
2021/10/01 13:16:00;;;;;;;3.70;2.50;;;;;;;14.03;72.25;97549.61;115576;1197;28475;-83
2021/10/01 13:18:32;;;;;;;5.50;3.10;;;;;;;14.03;72.70;97544.17;115595;1196;27245;-83
2021/10/01 13:21:12;;;;;;;4.40;2.90;;;;;;;14.04;72.67;97540.65;115519;1193;33126;-82
2021/10/01 13:23:45;;;;;;;5.50;3.70;;;;;;;14.08;73.29;97540.68;115476;1198;29834;-83
2021/10/01 13:26:21;;;;;;;5.30;3.30;;;;;;;14.17;73.35;97533.25;115491;1198;29044;-83
2021/10/01 13:28:54;;;;;;;4.40;3.10;;;;;;;14.17;73.26;97528.98;115494;1198;33682;-84
2021/10/01 13:31:26;;;;;;;4.30;2.70;;;;;;;14.14;73.00;97528.00;115482;1197;27617;-84
2021/10/01 13:33:58;;;;;;;7.50;3.90;;;;;;;14.18;73.54;97522.20;115501;1191;27467;-84